createdAt,value
2022-12-12T00:01:33.995Z,12.32
2022-12-12T00:04:02.003Z,13.00
2022-12-12T00:06:29.487Z,12.35
2022-12-12T00:08:56.787Z,12.20
2022-12-12T00:11:25.347Z,14.98
2022-12-12T00:13:54.448Z,11.63
2022-12-12T00:16:23.939Z,12.88
2022-12-12T00:18:52.337Z,10.90
2022-12-12T00:21:29.170Z,10.65
2022-12-12T00:23:58.148Z,11.80
2022-12-12T00:26:31.732Z,11.40
2022-12-12T00:29:01.817Z,10.55
2022-12-12T00:31:29.871Z,14.13
2022-12-12T00:33:57.620Z,8.98
2022-12-12T00:36:29.322Z,11.52
2022-12-12T00:38:57.236Z,11.73
2022-12-12T00:41:24.656Z,11.15
2022-12-12T00:43:52.374Z,12.15
2022-12-12T00:46:23.419Z,14.45
2022-12-12T00:48:55.611Z,10.77
2022-12-12T00:51:24.548Z,10.32
2022-12-12T00:53:53.143Z,9.32
2022-12-12T00:56:22.741Z,11.40
2022-12-12T00:58:51.149Z,11.20
2022-12-12T01:01:28.884Z,10.73
2022-12-12T01:03:56.462Z,10.68
2022-12-12T01:06:23.932Z,10.52
2022-12-12T01:08:52.875Z,13.38
2022-12-12T01:11:21.945Z,11.27
2022-12-12T01:13:53.149Z,9.10
2022-12-12T01:16:20.894Z,10.27
2022-12-12T01:18:48.465Z,10.13
2022-12-12T01:21:18.807Z,8.95
2022-12-12T01:23:46.457Z,9.90
2022-12-12T01:26:22.154Z,11.00
2022-12-12T01:28:50.756Z,11.43
2022-12-12T01:31:18.332Z,9.30
2022-12-12T01:33:46.480Z,9.25
2022-12-12T01:36:16.957Z,8.50
2022-12-12T01:38:50.662Z,10.80
2022-12-12T01:41:19.960Z,10.50
2022-12-12T01:43:47.832Z,11.27
2022-12-12T01:46:40.041Z,9.07
2022-12-12T01:49:34.022Z,9.55
2022-12-12T01:52:08.878Z,11.57
2022-12-12T01:54:43.767Z,8.30
2022-12-12T01:57:17.868Z,9.77
2022-12-12T01:59:46.680Z,10.98
2022-12-12T02:02:14.031Z,9.88
2022-12-12T02:04:42.633Z,9.63
2022-12-12T02:07:10.025Z,8.63
2022-12-12T02:09:38.617Z,9.98
2022-12-12T02:12:06.112Z,10.93
2022-12-12T02:14:43.397Z,8.63
2022-12-12T02:17:37.887Z,10.20
2022-12-12T02:20:49.024Z,10.02
2022-12-12T02:23:47.084Z,10.85
2022-12-12T02:26:23.719Z,9.95
2022-12-12T02:29:15.399Z,9.68
2022-12-12T02:32:04.755Z,8.77
2022-12-12T02:35:07.144Z,9.07
2022-12-12T02:38:04.891Z,9.10
2022-12-12T02:40:47.225Z,9.00
2022-12-12T02:43:43.715Z,8.60
2022-12-12T02:46:25.061Z,8.00
2022-12-12T02:49:50.157Z,10.10
2022-12-12T02:52:19.040Z,8.18
2022-12-12T02:54:46.552Z,9.07
2022-12-12T02:57:23.399Z,8.95
2022-12-12T02:59:57.712Z,8.07
2022-12-12T03:03:26.231Z,7.95
2022-12-12T03:06:39.301Z,10.48
2022-12-12T03:09:42.624Z,7.80
2022-12-12T03:12:48.854Z,8.68
2022-12-12T03:15:26.353Z,7.13
2022-12-12T03:18:23.536Z,8.27
2022-12-12T03:21:08.043Z,8.88
2022-12-12T03:23:43.978Z,8.18
2022-12-12T03:26:40.126Z,8.07
2022-12-12T03:29:24.194Z,6.85
2022-12-12T03:32:00.143Z,8.52
2022-12-12T03:34:38.116Z,6.75
2022-12-12T03:37:15.869Z,8.52
2022-12-12T03:39:52.720Z,5.95
2022-12-12T03:42:43.792Z,7.45
2022-12-12T03:45:30.821Z,7.68
2022-12-12T03:48:28.268Z,6.28
2022-12-12T03:51:04.476Z,7.28
2022-12-12T03:53:51.484Z,6.20
2022-12-12T03:56:32.953Z,7.25
2022-12-12T03:59:29.549Z,7.13
2022-12-12T04:02:40.446Z,8.40
2022-12-12T04:06:07.851Z,5.53
2022-12-12T04:08:35.523Z,7.70
2022-12-12T04:11:37.209Z,6.90
2022-12-12T04:14:41.857Z,7.93
2022-12-12T04:17:15.476Z,7.13
2022-12-12T04:20:16.946Z,6.68
2022-12-12T04:23:16.761Z,9.10
2022-12-12T04:26:26.425Z,7.15
2022-12-12T04:29:24.211Z,7.35
2022-12-12T04:32:24.875Z,5.90
2022-12-12T04:35:10.439Z,5.78
2022-12-12T04:37:56.692Z,6.93
2022-12-12T04:40:33.615Z,10.38
2022-12-12T04:43:12.232Z,6.13
2022-12-12T04:45:46.865Z,7.05
2022-12-12T04:48:26.181Z,6.15
2022-12-12T04:50:54.492Z,6.95
2022-12-12T04:53:32.773Z,5.40
2022-12-12T04:56:08.611Z,6.50
2022-12-12T04:58:39.362Z,6.00
2022-12-12T05:01:30.656Z,6.20
2022-12-12T05:04:07.721Z,7.00
2022-12-12T05:07:06.528Z,6.22
2022-12-12T05:09:35.420Z,6.25
2022-12-12T05:12:02.581Z,7.00
2022-12-12T05:14:31.709Z,6.45
2022-12-12T05:17:09.517Z,6.35
2022-12-12T05:19:36.905Z,6.13
2022-12-12T05:22:03.960Z,6.70
2022-12-12T05:24:31.946Z,6.60
2022-12-12T05:27:03.772Z,6.22
2022-12-12T05:29:31.954Z,6.70
2022-12-12T05:31:58.940Z,5.30
2022-12-12T05:34:26.396Z,7.20
2022-12-12T05:36:53.513Z,7.18
2022-12-12T05:39:20.779Z,7.20
2022-12-12T05:41:47.952Z,6.63
2022-12-12T05:44:15.300Z,6.95
2022-12-12T05:46:42.275Z,8.43
2022-12-12T05:49:09.620Z,7.72
2022-12-12T05:51:36.651Z,6.80
2022-12-12T05:54:04.155Z,7.60
2022-12-12T05:56:31.580Z,7.80
2022-12-12T05:58:58.827Z,7.78
2022-12-12T06:01:25.901Z,8.38
2022-12-12T06:03:53.450Z,9.18
2022-12-12T06:06:20.467Z,8.18
2022-12-12T06:08:47.843Z,7.78
2022-12-12T06:11:15.096Z,7.60
2022-12-12T06:13:42.425Z,7.03
2022-12-12T06:16:14.802Z,9.35
2022-12-12T06:18:42.217Z,8.98
2022-12-12T06:21:13.006Z,9.10
2022-12-12T06:23:42.784Z,8.10
2022-12-12T06:26:13.040Z,6.72
2022-12-12T06:28:41.419Z,8.40
2022-12-12T06:31:12.026Z,9.00
2022-12-12T06:33:42.491Z,7.57
2022-12-12T06:36:23.788Z,9.55
2022-12-12T06:38:59.107Z,9.77
2022-12-12T06:41:30.127Z,6.93
2022-12-12T06:43:58.014Z,7.07
2022-12-12T06:46:28.843Z,7.22
2022-12-12T06:48:57.520Z,7.65
2022-12-12T06:51:29.037Z,7.68
2022-12-12T06:53:56.692Z,9.20
2022-12-12T06:56:26.217Z,9.60
2022-12-12T06:58:55.019Z,9.85
2022-12-12T07:01:23.803Z,7.82
2022-12-12T07:03:53.152Z,8.50
2022-12-12T07:06:23.137Z,9.07
2022-12-12T07:08:52.202Z,9.73
2022-12-12T07:11:25.882Z,8.13
2022-12-12T07:13:57.090Z,9.45
2022-12-12T07:16:24.397Z,8.20
2022-12-12T07:18:51.753Z,9.57
2022-12-12T07:21:20.507Z,7.40
2022-12-12T07:23:47.882Z,8.48
2022-12-12T07:26:19.122Z,10.73
2022-12-12T07:28:47.984Z,8.43
2022-12-12T07:31:19.424Z,8.88
2022-12-12T07:33:47.428Z,9.70
2022-12-12T07:36:16.790Z,10.60
2022-12-12T07:38:44.797Z,9.15
2022-12-12T07:41:17.519Z,9.43
2022-12-12T07:43:50.065Z,8.43
2022-12-12T07:46:22.419Z,8.77
2022-12-12T07:51:18.111Z,8.73
2022-12-12T07:53:46.731Z,9.00
2022-12-12T07:56:16.210Z,8.50
2022-12-12T07:58:44.325Z,8.57
2022-12-12T08:01:17.660Z,10.93
2022-12-12T08:03:47.969Z,9.18
2022-12-12T08:06:16.861Z,10.77
2022-12-12T08:08:45.909Z,12.07
2022-12-12T08:11:17.345Z,10.20
2022-12-12T08:13:44.915Z,7.80
2022-12-12T08:16:25.659Z,9.75
2022-12-12T08:18:58.147Z,9.68
2022-12-12T08:21:26.990Z,9.80
2022-12-12T08:24:02.874Z,9.13
2022-12-12T08:26:32.148Z,9.13
2022-12-12T08:28:59.836Z,8.75
2022-12-12T08:31:27.889Z,10.27
2022-12-12T08:33:55.901Z,9.57
2022-12-12T08:36:30.392Z,10.07
2022-12-12T08:39:09.077Z,8.68
2022-12-12T08:41:39.512Z,10.88
2022-12-12T08:44:08.548Z,9.63
2022-12-12T08:46:36.037Z,7.40
2022-12-12T08:49:04.274Z,8.10
2022-12-12T08:51:31.279Z,9.80
2022-12-12T08:53:58.578Z,8.88
2022-12-12T08:56:26.106Z,9.75
2022-12-12T08:58:53.361Z,7.53
2022-12-12T09:01:24.709Z,10.57
2022-12-12T09:03:55.706Z,9.38
2022-12-12T09:06:24.960Z,9.88
2022-12-12T09:08:52.771Z,10.05
2022-12-12T09:11:19.891Z,10.52
2022-12-12T09:13:47.530Z,10.48
2022-12-12T09:16:14.992Z,10.70
2022-12-12T09:18:48.484Z,10.50
2022-12-12T09:21:17.271Z,10.70
2022-12-12T09:23:44.847Z,8.55
2022-12-12T09:26:12.278Z,9.05
2022-12-12T09:28:40.294Z,10.18
2022-12-12T09:31:10.625Z,9.77
2022-12-12T09:33:38.529Z,9.65
2022-12-12T09:36:08.641Z,10.27
2022-12-12T09:38:36.408Z,9.27
2022-12-12T09:41:09.679Z,7.97
2022-12-12T09:43:59.328Z,9.60
2022-12-12T09:46:53.368Z,10.18
2022-12-12T09:49:53.031Z,9.80
2022-12-12T09:52:32.648Z,9.32
2022-12-12T09:55:06.295Z,9.05
2022-12-12T09:57:47.175Z,7.75
2022-12-12T10:00:16.701Z,8.27
2022-12-12T10:03:28.498Z,8.98
2022-12-12T10:09:43.330Z,8.57
2022-12-12T10:12:16.935Z,8.75
2022-12-12T10:14:54.593Z,8.73
2022-12-12T10:17:42.944Z,9.00
2022-12-12T10:20:24.273Z,8.98
2022-12-12T10:23:19.493Z,9.80
2022-12-12T10:26:18.067Z,8.65
2022-12-12T10:28:50.256Z,8.95
2022-12-12T10:31:49.837Z,9.48
2022-12-12T10:34:43.422Z,8.85
2022-12-12T10:37:49.657Z,7.72
2022-12-12T10:41:03.753Z,8.75
2022-12-12T10:44:00.593Z,8.43
2022-12-12T10:47:07.898Z,10.23
2022-12-12T10:49:35.639Z,9.35
2022-12-12T10:52:11.655Z,8.15
2022-12-12T10:54:48.233Z,9.77
2022-12-12T10:57:25.118Z,9.63
2022-12-12T10:59:56.003Z,8.88
2022-12-12T11:02:36.947Z,8.98
2022-12-12T11:05:23.116Z,11.27
2022-12-12T11:08:21.300Z,9.43
2022-12-12T11:11:06.789Z,9.88
2022-12-12T11:14:20.464Z,8.93
2022-12-12T11:19:27.269Z,7.50
2022-12-12T11:22:02.572Z,7.25
2022-12-12T11:24:34.975Z,8.38
2022-12-12T11:27:07.244Z,5.35
2022-12-12T11:32:19.095Z,7.57
2022-12-12T11:34:55.594Z,9.02
2022-12-12T11:37:38.091Z,7.88
2022-12-12T11:40:24.352Z,9.48
2022-12-12T11:42:52.057Z,8.57
2022-12-12T11:45:23.786Z,9.98
2022-12-12T11:47:50.896Z,10.02
2022-12-12T11:50:30.333Z,9.55
2022-12-12T11:53:03.508Z,7.65
2022-12-12T11:56:14.053Z,9.63
2022-12-12T11:59:23.311Z,8.80
2022-12-12T12:02:27.213Z,9.43
2022-12-12T12:05:37.864Z,9.73
2022-12-12T12:08:29.796Z,8.85
2022-12-12T12:11:43.376Z,8.75
2022-12-12T12:14:37.919Z,10.02
2022-12-12T12:17:10.598Z,9.88
2022-12-12T12:20:08.321Z,9.63
2022-12-12T12:23:02.684Z,9.07
2022-12-12T12:25:44.486Z,8.95
2022-12-12T12:28:26.509Z,10.02
2022-12-12T12:31:12.366Z,11.05
2022-12-12T12:34:13.475Z,8.02
2022-12-12T12:37:14.294Z,9.48
2022-12-12T12:40:03.429Z,9.57
2022-12-12T12:43:01.644Z,9.25
2022-12-12T12:45:49.380Z,8.98
2022-12-12T12:48:28.807Z,10.52
2022-12-12T12:51:29.415Z,10.32
2022-12-12T12:54:23.019Z,8.90
2022-12-12T12:57:18.513Z,8.77
2022-12-12T12:59:52.743Z,8.00
2022-12-12T13:02:39.835Z,8.73
2022-12-12T13:05:17.248Z,8.13
2022-12-12T13:08:26.511Z,8.95
2022-12-12T13:11:02.729Z,8.13
2022-12-12T13:13:34.882Z,8.30
2022-12-12T13:16:13.398Z,10.93
2022-12-12T13:18:45.422Z,10.30
2022-12-12T13:23:56.854Z,7.50
2022-12-12T13:26:39.063Z,8.63
2022-12-12T13:29:33.316Z,7.28
2022-12-12T13:32:37.507Z,7.80
2022-12-12T13:35:16.257Z,7.22
2022-12-12T13:37:51.330Z,7.80
2022-12-12T13:40:42.417Z,7.97
2022-12-12T13:43:48.994Z,8.95
2022-12-12T13:46:21.710Z,8.48
2022-12-12T13:48:57.912Z,9.35
2022-12-12T13:51:27.984Z,8.50
2022-12-12T13:54:12.569Z,8.68
2022-12-12T13:56:45.870Z,9.00
2022-12-12T14:01:55.102Z,9.73
2022-12-12T14:04:32.013Z,8.95
2022-12-12T14:07:18.883Z,10.23
2022-12-12T14:09:55.140Z,11.65
2022-12-12T14:12:34.722Z,8.95
2022-12-12T14:15:18.402Z,9.60
2022-12-12T14:17:59.908Z,9.30
2022-12-12T14:20:36.288Z,9.85
2022-12-12T14:23:26.260Z,7.55
2022-12-12T14:25:54.143Z,9.50
2022-12-12T14:28:34.300Z,7.80
2022-12-12T14:31:15.647Z,9.80
2022-12-12T14:34:12.735Z,10.05
2022-12-12T14:37:21.720Z,11.25
2022-12-12T14:39:55.678Z,10.63
2022-12-12T14:43:21.413Z,11.85
2022-12-12T14:45:51.182Z,8.93
2022-12-12T14:48:35.399Z,9.52
2022-12-12T14:51:29.452Z,9.85
2022-12-12T14:54:01.773Z,11.05
2022-12-12T14:56:46.409Z,10.85
2022-12-12T14:59:36.209Z,8.70
2022-12-12T15:02:39.870Z,10.07
2022-12-12T15:05:08.420Z,8.93
2022-12-12T15:07:38.535Z,9.23
2022-12-12T15:10:28.239Z,9.27
2022-12-12T15:12:55.334Z,7.85
2022-12-12T15:15:32.052Z,11.40
2022-12-12T15:18:01.348Z,11.07
2022-12-12T15:20:32.231Z,9.95
2022-12-12T15:23:06.950Z,9.52
2022-12-12T15:25:55.082Z,10.25
2022-12-12T15:28:24.853Z,10.10
2022-12-12T15:30:55.237Z,10.45
2022-12-12T15:33:27.123Z,10.25
2022-12-12T15:36:02.270Z,9.48
2022-12-12T15:38:32.528Z,11.18
2022-12-12T15:41:08.174Z,10.57
2022-12-12T15:43:43.000Z,11.60
2022-12-12T15:46:15.445Z,11.40
2022-12-12T15:48:47.632Z,11.95
2022-12-12T15:51:24.437Z,10.27
2022-12-12T15:53:55.415Z,10.60
2022-12-12T15:56:28.968Z,11.02
2022-12-12T15:59:05.251Z,11.25
2022-12-12T16:01:33.281Z,9.30
2022-12-12T16:04:09.726Z,11.65
2022-12-12T16:06:46.024Z,11.75
2022-12-12T16:09:26.464Z,11.05
2022-12-12T16:11:55.746Z,11.32
2022-12-12T16:14:42.051Z,12.00
2022-12-12T16:17:23.571Z,10.35
2022-12-12T16:20:07.550Z,12.57
2022-12-12T16:22:48.981Z,10.60
2022-12-12T16:25:29.366Z,10.93
2022-12-12T16:28:25.824Z,9.65
2022-12-12T16:31:02.137Z,9.82
2022-12-12T16:33:31.424Z,10.55
2022-12-12T16:36:03.025Z,11.18
2022-12-12T16:38:31.496Z,10.43
2022-12-12T16:41:06.562Z,10.68
2022-12-12T16:43:34.865Z,10.57
2022-12-12T16:46:02.044Z,10.77
2022-12-12T16:48:35.162Z,10.05
2022-12-12T16:51:08.250Z,9.07
2022-12-12T16:53:37.080Z,9.80
2022-12-12T16:56:04.837Z,8.77
2022-12-12T16:58:33.229Z,9.50
2022-12-12T17:01:01.607Z,10.95
2022-12-12T17:03:30.370Z,11.55
2022-12-12T17:05:57.421Z,9.45
2022-12-12T17:08:26.685Z,11.77
2022-12-12T17:11:10.629Z,10.15
2022-12-12T17:13:47.185Z,10.00
2022-12-12T17:16:15.210Z,12.77
2022-12-12T17:18:42.608Z,10.75
2022-12-12T17:21:09.757Z,9.85
2022-12-12T17:23:37.011Z,8.55
2022-12-12T17:26:04.946Z,9.02
2022-12-12T17:28:35.805Z,9.07
2022-12-12T17:31:07.693Z,9.90
2022-12-12T17:33:35.795Z,10.02
2022-12-12T17:36:06.244Z,9.98
2022-12-12T17:38:33.813Z,10.32
2022-12-12T17:41:10.859Z,9.57
2022-12-12T17:43:38.691Z,8.13
2022-12-12T17:46:14.572Z,8.38
2022-12-12T17:48:47.904Z,9.85
2022-12-12T17:51:19.636Z,8.70
2022-12-12T17:53:47.244Z,8.45
2022-12-12T17:56:21.722Z,9.85
2022-12-12T17:58:50.607Z,11.27
2022-12-12T18:01:28.378Z,10.23
2022-12-12T18:03:57.552Z,10.35
2022-12-12T18:06:27.021Z,8.07
2022-12-12T18:08:55.161Z,10.93
2022-12-12T18:11:27.924Z,11.10
2022-12-12T18:13:58.119Z,10.18
2022-12-12T18:16:28.422Z,9.98
2022-12-12T18:18:57.219Z,10.60
2022-12-12T18:24:24.068Z,9.27
2022-12-12T18:26:57.931Z,9.73
2022-12-12T18:29:26.805Z,10.00
2022-12-12T18:31:54.179Z,9.00
2022-12-12T18:34:22.231Z,10.50
2022-12-12T18:36:49.800Z,10.55
2022-12-12T18:39:17.671Z,9.95
2022-12-12T18:41:44.918Z,10.52
2022-12-12T18:44:14.971Z,11.82
2022-12-12T18:46:43.623Z,11.23
2022-12-12T18:49:15.420Z,12.40
2022-12-12T18:51:43.886Z,13.05
2022-12-12T18:54:15.785Z,11.52
2022-12-12T18:56:46.701Z,11.93
2022-12-12T18:59:16.250Z,12.88
2022-12-12T19:01:43.942Z,15.23
2022-12-12T19:04:17.459Z,13.68
2022-12-12T19:06:48.166Z,14.30
2022-12-12T19:09:18.888Z,15.30
2022-12-12T19:11:47.265Z,13.32
2022-12-12T19:14:16.978Z,16.80
2022-12-12T19:16:45.300Z,17.65
2022-12-12T19:19:14.052Z,20.13
2022-12-12T19:21:42.669Z,16.13
2022-12-12T19:24:12.559Z,15.77
2022-12-12T19:26:43.775Z,15.27
2022-12-12T19:29:17.753Z,18.37
2022-12-12T19:31:45.431Z,15.85
2022-12-12T19:34:16.843Z,15.75
2022-12-12T19:36:44.429Z,14.43
2022-12-12T19:39:13.285Z,17.65
2022-12-12T19:41:40.856Z,16.25
2022-12-12T19:44:12.531Z,15.32
2022-12-12T19:46:43.458Z,15.40
2022-12-12T19:49:15.281Z,13.85
2022-12-12T19:51:45.216Z,14.60
2022-12-12T19:54:18.643Z,12.90
2022-12-12T19:56:46.589Z,13.93
2022-12-12T19:59:17.605Z,12.50
2022-12-12T20:01:46.251Z,14.88
2022-12-12T20:04:20.692Z,13.98
2022-12-12T20:06:49.719Z,12.13
2022-12-12T20:09:21.242Z,12.27
2022-12-12T20:11:49.293Z,15.50
2022-12-12T20:14:24.534Z,13.07
2022-12-12T20:19:23.428Z,12.35
2022-12-12T20:22:02.152Z,11.95
2022-12-12T20:24:32.733Z,11.00
2022-12-12T20:27:06.621Z,10.63
2022-12-12T20:29:34.588Z,11.68
2022-12-12T20:32:02.179Z,12.55
2022-12-12T20:34:30.153Z,11.13
2022-12-12T20:36:57.241Z,11.02
2022-12-12T20:39:25.794Z,12.13
2022-12-12T20:41:54.555Z,9.40
2022-12-12T20:44:25.550Z,10.23
2022-12-12T20:46:53.570Z,10.52
2022-12-12T20:49:23.813Z,11.80
2022-12-12T20:51:56.274Z,9.65
2022-12-12T20:54:28.042Z,10.27
2022-12-12T20:56:55.708Z,10.85
2022-12-12T20:59:24.262Z,11.70
2022-12-12T21:01:54.984Z,11.50
2022-12-12T21:04:24.038Z,9.00
2022-12-12T21:06:51.800Z,11.20
2022-12-12T21:09:25.624Z,10.93
2022-12-12T21:11:56.434Z,10.77
2022-12-12T21:14:26.033Z,10.38
2022-12-12T21:16:53.800Z,10.40
2022-12-12T21:19:23.154Z,12.27
2022-12-12T21:21:50.954Z,9.95
2022-12-12T21:24:21.196Z,8.77
2022-12-12T21:26:48.788Z,11.02
2022-12-12T21:29:16.991Z,8.77
2022-12-12T21:31:50.776Z,10.02
2022-12-12T21:34:22.431Z,8.52
2022-12-12T21:36:54.609Z,9.77
2022-12-12T21:39:26.766Z,8.23
2022-12-12T21:41:54.784Z,8.95
2022-12-12T21:44:22.264Z,7.78
2022-12-12T21:46:49.716Z,8.93
2022-12-12T21:49:25.912Z,7.43
2022-12-12T21:52:09.859Z,8.30
2022-12-12T21:54:37.171Z,7.28
2022-12-12T21:57:04.481Z,9.27
2022-12-12T21:59:32.542Z,7.60
2022-12-12T22:02:00.742Z,9.07
2022-12-12T22:04:29.440Z,8.57
2022-12-12T22:06:58.107Z,10.77
2022-12-12T22:09:26.527Z,8.70
2022-12-12T22:12:03.563Z,8.80
2022-12-12T22:14:34.044Z,9.10
2022-12-12T22:17:04.126Z,8.07
2022-12-12T22:19:31.908Z,10.07
2022-12-12T22:21:59.057Z,8.75
2022-12-12T22:24:26.446Z,10.15
2022-12-12T22:26:53.551Z,7.65
2022-12-12T22:29:21.381Z,8.05
2022-12-12T22:31:50.098Z,7.95
2022-12-12T22:34:22.326Z,8.77
2022-12-12T22:36:50.372Z,6.90
2022-12-12T22:39:24.946Z,7.15
2022-12-12T22:41:53.433Z,9.48
2022-12-12T22:44:23.701Z,10.60
2022-12-12T22:46:54.181Z,10.52
2022-12-12T22:49:25.742Z,9.48
2022-12-12T22:51:56.581Z,8.35
2022-12-12T22:54:26.040Z,8.65
2022-12-12T22:56:53.769Z,7.55
2022-12-12T22:59:21.260Z,10.27
2022-12-12T23:01:48.295Z,8.70
2022-12-12T23:04:15.939Z,8.55
2022-12-12T23:06:43.861Z,8.85
2022-12-12T23:09:18.742Z,7.53
2022-12-12T23:11:46.254Z,7.32
2022-12-12T23:14:19.690Z,8.50
2022-12-12T23:16:47.763Z,8.32
2022-12-12T23:19:19.457Z,7.55
2022-12-12T23:21:46.884Z,8.10
2022-12-12T23:24:14.449Z,7.38
2022-12-12T23:26:42.795Z,8.88
2022-12-12T23:29:16.288Z,7.15
2022-12-12T23:31:44.577Z,7.43
2022-12-12T23:34:23.423Z,8.82
2022-12-12T23:36:54.648Z,8.00
2022-12-12T23:39:23.146Z,9.45
2022-12-12T23:41:50.489Z,7.65
2022-12-12T23:44:20.727Z,7.35
2022-12-12T23:46:48.439Z,7.50
2022-12-12T23:49:24.417Z,6.95
2022-12-12T23:51:58.000Z,8.18
2022-12-12T23:54:32.041Z,9.07
2022-12-12T23:56:59.890Z,9.07
2022-12-12T23:59:28.500Z,12.43
